Time;durP1;ratioP1;P1;durP2;ratioP2;P2;SDS_P1;SDS_P2;PMS_P1;PMS_P2;Temp;Humidity;BMP_temperature;BMP_pressure;BME280_temperature;BME280_humidity;BME280_pressure;Samples;Min_cycle;Max_cycle;Signal;HPM_P1;HPM_P2
2023/07/16 00:00:15;;;;;;;;;;;;;;;19.12;60.30;100778.23;108442;1266;59008;-85
2023/07/16 00:03:02;;;;;;;;;;;;;;;19.11;60.37;100781.83;108446;1264;125159;-84
2023/07/16 00:05:29;;;;;;;;;;;;;;;19.10;60.41;100780.23;108562;1262;73026;-84
2023/07/16 00:07:56;;;;;;;;;;;;;;;19.09;60.46;100778.64;108318;1268;125825;-84
2023/07/16 00:10:23;;;;;;;;;;;;;;;19.08;60.43;100771.17;108508;1262;72744;-84
2023/07/16 00:12:50;;;;;;;;;;;;;;;19.06;60.49;100768.33;108585;1264;59562;-85
2023/07/16 00:15:17;;;;;;;;;;;;;;;19.05;60.54;100767.81;108435;1261;125233;-85
2023/07/16 00:17:44;;;;;;;;;;;;;;;19.04;60.56;100764.80;108370;1262;74717;-85
2023/07/16 00:20:11;;;;;;;;;;;;;;;19.03;60.61;100766.77;108411;1260;125381;-85
2023/07/16 00:22:41;;;;;;;;;;;;;;;19.02;60.65;100763.05;108412;1267;72076;-85
2023/07/16 00:25:09;;;;;;;;;;;;;;;19.01;60.71;100766.79;108567;1261;59323;-85
2023/07/16 00:27:36;;;;;;;;;;;;;;;19.00;60.72;100763.95;108349;1260;125354;-85
2023/07/16 00:30:03;;;;;;;;;;;;;;;18.99;60.78;100761.65;108591;1260;74697;-85
2023/07/16 00:32:30;;;;;;;;;;;;;;;18.98;60.73;100762.91;108508;1261;125623;-85
2023/07/16 00:34:57;;;;;;;;;;;;;;;18.97;60.76;100757.03;108410;1262;72743;-85
2023/07/16 00:37:24;;;;;;;;;;;;;;;18.98;60.87;100755.80;108360;1264;125784;-85
2023/07/16 00:39:51;;;;;;;;;;;;;;;18.98;60.90;100753.66;108614;1260;60107;-85
2023/07/16 00:42:18;;;;;;;;;;;;;;;19.00;61.01;100753.64;108490;1260;75140;-85
2023/07/16 00:44:45;;;;;;;;;;;;;;;19.02;61.13;100749.71;108376;1267;124679;-85
2023/07/16 00:47:12;;;;;;;;;;;;;;;19.04;61.30;100745.77;108564;1261;71384;-85
2023/07/16 00:49:39;;;;;;;;;;;;;;;19.07;61.37;100740.59;108303;1264;125065;-85
2023/07/16 00:52:07;;;;;;;;;;;;;;;19.10;61.47;100735.23;108339;1264;59555;-85
2023/07/16 00:54:34;;;;;;;;;;;;;;;19.13;61.48;100736.98;108440;1267;74688;-86
2023/07/16 00:57:01;;;;;;;;;;;;;;;19.16;61.54;100734.80;108539;1261;125032;-85
2023/07/16 00:59:27;;;;;;;;;;;;;;;19.18;61.52;100734.25;108569;1266;72034;-85
2023/07/16 01:01:54;;;;;;;;;;;;;;;19.20;61.62;100730.84;108385;1267;124980;-85
2023/07/16 01:04:21;;;;;;;;;;;;;;;19.22;61.69;100725.14;108614;1265;59541;-85
2023/07/16 01:06:49;;;;;;;;;;;;;;;19.24;61.85;100731.87;108474;1263;74053;-85
2023/07/16 01:09:17;;;;;;;;;;;;;;;19.26;61.92;100731.67;108496;1260;124736;-85
2023/07/16 01:11:44;;;;;;;;;;;;;;;19.24;62.10;100721.73;108394;1262;72700;-85
2023/07/16 01:14:12;;;;;;;;;;;;;;;19.24;62.16;100721.55;108528;1265;124742;-85
2023/07/16 01:16:40;;;;;;;;;;;;;;;19.24;62.25;100720.48;108453;1264;59416;-85
2023/07/16 01:19:07;;;;;;;;;;;;;;;19.25;62.39;100715.86;108404;1264;73773;-85
2023/07/16 01:21:46;;;;;;;;;;;;;;;19.25;62.49;100709.98;108366;1260;124206;-85
2023/07/16 01:24:17;;;;;;;;;;;;;;;19.23;62.50;100701.29;108554;1266;71431;-85
2023/07/16 01:27:16;;;;;;;;;;;;;;;19.20;62.54;100694.91;108393;1264;124336;-85
2023/07/16 01:30:03;;;;;;;;;;;;;;;19.16;62.64;100696.02;108172;1262;59083;-85
2023/07/16 01:32:30;;;;;;;;;;;;;;;19.12;62.62;100692.70;108432;1261;124757;-85
2023/07/16 01:34:57;;;;;;;;;;;;;;;19.07;62.64;100695.23;108616;1264;65560;-85
2023/07/16 01:37:24;;;;;;;;;;;;;;;19.02;62.78;100697.23;108298;1264;125004;-85
2023/07/16 01:39:51;;;;;;;;;;;;;;;18.97;63.07;100701.21;108448;1263;59170;-85
2023/07/16 01:42:18;;;;;;;;;;;;;;;18.91;63.22;100708.92;108656;1261;59284;-85
2023/07/16 01:44:45;;;;;;;;;;;;;;;18.86;63.38;100710.39;108568;1261;124323;-85
2023/07/16 01:47:33;;;;;;;;;;;;;;;18.78;63.64;100708.13;108600;1260;66346;-85
2023/07/16 01:50:00;;;;;;;;;;;;;;;18.72;63.87;100702.86;108413;1263;124469;-85
2023/07/16 01:52:27;;;;;;;;;;;;;;;18.66;64.07;100697.39;108450;1260;59856;-85
2023/07/16 01:54:54;;;;;;;;;;;;;;;18.62;64.22;100697.07;108566;1260;60156;-86
2023/07/16 01:57:21;;;;;;;;;;;;;;;18.58;64.37;100700.48;108524;1263;124176;-86
2023/07/16 01:59:48;;;;;;;;;;;;;;;18.58;64.53;100697.99;108635;1261;65841;-85
2023/07/16 02:02:15;;;;;;;;;;;;;;;18.60;64.73;100688.91;108465;1263;124372;-85
2023/07/16 02:04:42;;;;;;;;;;;;;;;18.65;64.86;100690.65;108598;1264;59367;-85
2023/07/16 02:07:08;;;;;;;;;;;;;;;18.69;64.91;100693.81;108630;1262;59920;-85
2023/07/16 02:09:35;;;;;;;;;;;;;;;18.74;64.91;100694.29;108516;1260;124619;-85
2023/07/16 02:12:02;;;;;;;;;;;;;;;18.79;64.93;100693.54;108588;1261;67271;-85
2023/07/16 02:14:29;;;;;;;;;;;;;;;18.84;64.95;100697.77;108453;1264;124793;-85
2023/07/16 02:16:56;;;;;;;;;;;;;;;18.90;64.88;100692.22;108383;1267;59316;-85
2023/07/16 02:19:25;;;;;;;;;;;;;;;18.94;64.88;100685.23;108366;1267;125994;-85
2023/07/16 02:21:52;;;;;;;;;;;;;;;18.99;64.80;100681.09;108496;1260;74722;-86
2023/07/16 02:24:19;;;;;;;;;;;;;;;19.05;64.80;100680.15;108643;1260;67096;-86
2023/07/16 02:26:46;;;;;;;;;;;;;;;19.10;64.63;100677.77;108486;1261;125061;-86
2023/07/16 02:29:13;;;;;;;;;;;;;;;19.18;64.61;100682.83;108603;1262;59982;-86
2023/07/16 02:31:40;;;;;;;;;;;;;;;19.25;64.48;100686.50;108403;1264;126060;-86
2023/07/16 02:34:07;;;;;;;;;;;;;;;19.32;64.48;100685.87;108547;1262;74713;-86
2023/07/16 02:36:33;;;;;;;;;;;;;;;19.40;64.53;100688.27;108613;1261;67077;-86
2023/07/16 02:39:00;;;;;;;;;;;;;;;19.48;64.59;100696.73;108410;1260;125067;-86
2023/07/16 02:41:27;;;;;;;;;;;;;;;19.53;64.54;100692.73;108470;1267;59541;-86
2023/07/16 02:44:01;;;;;;;;;;;;;;;19.59;64.59;100686.60;108488;1260;125144;-86
2023/07/16 02:46:28;;;;;;;;;;;;;;;19.65;64.55;100683.15;108472;1264;72353;-86
2023/07/16 02:48:55;;;;;;;;;;;;;;;19.70;64.49;100672.74;108486;1262;66891;-86
2023/07/16 02:51:22;;;;;;;;;;;;;;;19.75;64.39;100667.38;108456;1265;125471;-86
2023/07/16 02:53:48;;;;;;;;;;;;;;;19.79;64.29;100668.74;108545;1260;59045;-86
2023/07/16 02:56:16;;;;;;;;;;;;;;;19.82;64.25;100674.21;108573;1262;125471;-85
2023/07/16 02:58:43;;;;;;;;;;;;;;;19.83;64.23;100664.95;108538;1261;74729;-85
2023/07/16 03:01:10;;;;;;;;;;;;;;;19.84;64.27;100655.68;108599;1263;67064;-85
2023/07/16 03:03:37;;;;;;;;;;;;;;;19.86;64.44;100651.55;108545;1267;74286;-85
2023/07/16 03:06:04;;;;;;;;;;;;;;;19.89;64.56;100648.82;108488;1260;59716;-85
2023/07/16 03:08:31;;;;;;;;;;;;;;;19.93;64.55;100645.74;108528;1263;123869;-85
2023/07/16 03:10:58;;;;;;;;;;;;;;;19.98;64.69;100649.58;108634;1261;74772;-85
2023/07/16 03:13:25;;;;;;;;;;;;;;;20.07;64.68;100663.51;108438;1262;124422;-86
2023/07/16 03:15:52;;;;;;;;;;;;;;;20.19;64.74;100661.73;108539;1260;73043;-86
2023/07/16 03:18:19;;;;;;;;;;;;;;;20.30;64.68;100658.15;108572;1260;59356;-86
2023/07/16 03:20:46;;;;;;;;;;;;;;;20.42;64.57;100654.56;108351;1262;124596;-86
2023/07/16 03:23:13;;;;;;;;;;;;;;;20.51;64.45;100640.70;108505;1260;73285;-85
2023/07/16 03:25:40;;;;;;;;;;;;;;;20.58;64.32;100631.48;108371;1260;125953;-85
2023/07/16 03:28:07;;;;;;;;;;;;;;;20.62;64.22;100634.82;108672;1260;72393;-86
2023/07/16 03:30:34;;;;;;;;;;;;;;;20.69;64.22;100648.61;108663;1261;59284;-84
2023/07/16 03:33:01;;;;;;;;;;;;;;;20.80;64.17;100665.35;108417;1262;124791;-84
2023/07/16 03:35:28;;;;;;;;;;;;;;;21.15;64.62;100669.66;108398;1262;74194;-84
2023/07/16 03:37:54;;;;;;;;;;;;;;;21.81;64.28;100657.56;108450;1262;124445;-84
2023/07/16 03:40:25;;;;;;;;;;;;;;;22.02;63.07;100645.82;108568;1262;72764;-84
2023/07/16 03:42:52;;;;;;;;;;;;;;;21.88;62.58;100641.70;108403;1264;59386;-84
2023/07/16 03:45:19;;;;;;;;;;;;;;;21.81;62.55;100649.00;108298;1263;124887;-86
2023/07/16 03:47:46;;;;;;;;;;;;;;;21.74;62.42;100656.84;108578;1264;75370;-85
2023/07/16 03:50:13;;;;;;;;;;;;;;;21.93;63.25;100652.82;108465;1262;124253;-86
2023/07/16 03:52:40;;;;;;;;;;;;;;;22.71;63.29;100656.80;108588;1262;72738;-86
2023/07/16 03:55:07;;;;;;;;;;;;;;;23.34;62.43;100651.86;108618;1262;59170;-86
2023/07/16 03:57:34;;;;;;;;;;;;;;;23.93;61.78;100647.56;108331;1261;124527;-86
2023/07/16 04:00:02;;;;;;;;;;;;;;;25.20;61.97;100638.00;108390;1263;74547;-85
2023/07/16 04:02:30;;;;;;;;;;;;;;;26.90;60.35;100630.38;108230;1269;125244;-85
2023/07/16 04:04:57;;;;;;;;;;;;;;;28.38;57.94;100628.75;108316;1262;72408;-86
2023/07/16 04:07:24;;;;;;;;;;;;;;;29.63;55.60;100631.18;108302;1262;125499;-85
2023/07/16 04:09:51;;;;;;;;;;;;;;;30.72;53.84;100630.58;108465;1263;59201;-85
2023/07/16 04:12:18;;;;;;;;;;;;;;;31.84;51.90;100631.90;108440;1262;65371;-86
2023/07/16 04:14:45;;;;;;;;;;;;;;;32.87;50.12;100630.37;108278;1263;124534;-86
2023/07/16 04:17:12;;;;;;;;;;;;;;;33.90;48.42;100625.73;108545;1262;63612;-86
2023/07/16 04:19:39;;;;;;;;;;;;;;;34.81;46.74;100625.55;108475;1263;124459;-86
2023/07/16 04:22:06;;;;;;;;;;;;;;;35.21;44.86;100624.96;108537;1262;59139;-86
2023/07/16 04:24:33;;;;;;;;;;;;;;;35.90;43.80;100623.81;108613;1262;66074;-86
2023/07/16 04:27:00;;;;;;;;;;;;;;;36.84;42.33;100617.66;108510;1262;124384;-86
2023/07/16 04:29:27;;;;;;;;;;;;;;;37.67;41.06;100616.04;108459;1262;64037;-86
2023/07/16 04:31:54;;;;;;;;;;;;;;;38.56;39.89;100609.76;108329;1262;125317;-84
2023/07/16 04:34:21;;;;;;;;;;;;;;;39.28;38.13;100605.95;108470;1261;59055;-85
2023/07/16 04:36:48;;;;;;;;;;;;;;;39.85;36.94;100608.54;108623;1262;65862;-85
2023/07/16 04:39:14;;;;;;;;;;;;;;;40.16;35.62;100611.46;108446;1262;124611;-85
2023/07/16 04:41:41;;;;;;;;;;;;;;;39.27;34.23;100612.78;108535;1262;64182;-85
2023/07/16 04:44:08;;;;;;;;;;;;;;;37.54;34.06;100611.45;108334;1264;124946;-84
2023/07/16 04:46:35;;;;;;;;;;;;;;;36.45;34.83;100611.92;108544;1262;59475;-84
2023/07/16 04:49:02;;;;;;;;;;;;;;;35.81;35.28;100615.35;108593;1262;66194;-84
2023/07/16 04:51:29;;;;;;;;;;;;;;;35.03;35.43;100611.96;108366;1263;124422;-84
2023/07/16 04:53:56;;;;;;;;;;;;;;;33.84;35.62;100612.50;108537;1263;62653;-84
2023/07/16 04:56:23;;;;;;;;;;;;;;;32.68;36.59;100611.56;108250;1262;125128;-84
2023/07/16 04:58:50;;;;;;;;;;;;;;;31.90;37.34;100615.00;108439;1263;59190;-84
2023/07/16 05:01:20;;;;;;;;;;;;;;;31.13;38.04;100614.54;108480;1262;125154;-84
2023/07/16 05:03:47;;;;;;;;;;;;;;;30.51;38.95;100610.14;108442;1264;59229;-84
2023/07/16 05:06:14;;;;;;;;;;;;;;;29.88;39.49;100603.52;108450;1262;72530;-84
2023/07/16 05:08:41;;;;;;;;;;;;;;;29.31;40.16;100598.27;108235;1264;124565;-85
2023/07/16 05:11:08;;;;;;;;;;;;;;;28.81;40.66;100598.04;108557;1264;59002;-85
2023/07/16 05:13:35;;;;;;;;;;;;;;;28.40;41.45;100615.49;108487;1262;124554;-84
2023/07/16 05:16:01;;;;;;;;;;;;;;;28.12;42.04;100612.59;108510;1262;65658;-85
2023/07/16 05:18:28;;;;;;;;;;;;;;;27.98;42.41;100620.36;108574;1262;72322;-85
2023/07/16 05:20:55;;;;;;;;;;;;;;;28.26;43.34;100613.15;108429;1262;124298;-85
2023/07/16 05:23:22;;;;;;;;;;;;;;;29.81;43.38;100609.35;108582;1262;60237;-85
2023/07/16 05:25:49;;;;;;;;;;;;;;;30.46;41.89;100613.01;108453;1262;124969;-84
2023/07/16 05:28:18;;;;;;;;;;;;;;;30.66;41.19;100623.58;108469;1263;59490;-85
2023/07/16 05:30:46;;;;;;;;;;;;;;;30.25;40.97;100628.52;108429;1263;72725;-85
2023/07/16 05:33:13;;;;;;;;;;;;;;;29.72;41.10;100639.34;108414;1264;124409;-85
2023/07/16 05:35:40;;;;;;;;;;;;;;;29.15;41.62;100640.32;108415;1263;59094;-85
2023/07/16 05:38:07;;;;;;;;;;;;;;;28.70;42.26;100640.88;108339;1263;125015;-85
2023/07/16 05:40:34;;;;;;;;;;;;;;;28.30;42.75;100637.85;108349;1264;66960;-84
2023/07/16 05:43:04;;;;;;;;;;;;;;;27.84;43.20;100633.61;108507;1262;72012;-86
2023/07/16 05:45:33;;;;;;;;;;;;;;;27.37;44.15;100633.68;108419;1264;124259;-85
2023/07/16 05:48:00;;;;;;;;;;;;;;;27.00;44.72;100620.40;108541;1263;60139;-85
2023/07/16 05:50:27;;;;;;;;;;;;;;;26.70;45.29;100618.88;108466;1263;124771;-85
2023/07/16 05:52:54;;;;;;;;;;;;;;;26.44;45.94;100654.85;108529;1262;66002;-85
2023/07/16 05:55:21;;;;;;;;;;;;;;;26.20;46.65;100691.13;108455;1262;125060;-85
2023/07/16 05:57:48;;;;;;;;;;;;;;;25.94;47.07;100682.61;108450;1262;59208;-86
2023/07/16 06:00:15;;;;;;;;;;;;;;;25.79;47.58;100678.16;108551;1262;59109;-86
2023/07/16 06:02:42;;;;;;;;;;;;;;;25.66;48.06;100681.73;108414;1263;124636;-85
2023/07/16 06:05:09;;;;;;;;;;;;;;;25.61;48.43;100676.38;108505;1263;66940;-85
2023/07/16 06:07:36;;;;;;;;;;;;;;;25.68;49.14;100671.23;108325;1262;124524;-85
2023/07/16 06:10:04;;;;;;;;;;;;;;;25.87;49.21;100675.71;108542;1263;58999;-85
2023/07/16 06:12:31;;;;;;;;;;;;;;;26.14;49.35;100682.75;108527;1263;59490;-85
2023/07/16 06:14:58;;;;;;;;;;;;;;;26.38;49.31;100674.00;108423;1262;125820;-85
2023/07/16 06:17:25;;;;;;;;;;;;;;;26.65;49.31;100672.36;108575;1264;67101;-86
2023/07/16 06:19:52;;;;;;;;;;;;;;;26.92;49.00;100670.09;108334;1263;124801;-85
2023/07/16 06:22:19;;;;;;;;;;;;;;;27.16;49.10;100662.02;108398;1263;59175;-85
2023/07/16 06:24:45;;;;;;;;;;;;;;;27.30;48.77;100659.23;108513;1262;59058;-86
2023/07/16 06:27:12;;;;;;;;;;;;;;;27.38;48.82;100656.55;108333;1263;124684;-86
2023/07/16 06:29:39;;;;;;;;;;;;;;;27.44;48.74;100648.14;108442;1263;65639;-85
2023/07/16 06:32:07;;;;;;;;;;;;;;;27.47;48.66;100652.50;108256;1262;124975;-85
2023/07/16 06:34:35;;;;;;;;;;;;;;;27.50;48.86;100650.54;108312;1263;59305;-85
2023/07/16 06:37:02;;;;;;;;;;;;;;;27.59;48.89;100635.73;108521;1262;59615;-85
2023/07/16 06:39:30;;;;;;;;;;;;;;;27.68;49.04;100628.80;108441;1264;124294;-85
2023/07/16 06:41:57;;;;;;;;;;;;;;;27.79;49.04;100627.53;108351;1262;65422;-86
2023/07/16 06:44:24;;;;;;;;;;;;;;;27.88;49.00;100632.73;108331;1262;124188;-85
2023/07/16 06:46:51;;;;;;;;;;;;;;;27.93;48.84;100638.78;108308;1263;59029;-84
2023/07/16 06:49:18;;;;;;;;;;;;;;;28.00;49.00;100640.60;108418;1262;124957;-84
2023/07/16 06:51:45;;;;;;;;;;;;;;;28.08;48.88;100642.90;108546;1262;75304;-84
2023/07/16 06:54:12;;;;;;;;;;;;;;;28.15;48.83;100636.84;108462;1263;65874;-85
2023/07/16 06:56:40;;;;;;;;;;;;;;;28.21;48.77;100634.33;108425;1262;124267;-85
2023/07/16 06:59:07;;;;;;;;;;;;;;;28.26;48.65;100647.09;108438;1263;59897;-85
2023/07/16 07:01:34;;;;;;;;;;;;;;;28.32;48.16;100660.86;108289;1262;124978;-84
2023/07/16 07:04:01;;;;;;;;;;;;;;;28.38;47.21;100662.74;108503;1264;74733;-85
2023/07/16 07:06:28;;;;;;;;;;;;;;;28.43;46.79;100656.70;108376;1262;66795;-85
2023/07/16 07:08:54;;;;;;;;;;;;;;;28.49;46.43;100656.19;108353;1262;124242;-85
2023/07/16 07:11:21;;;;;;;;;;;;;;;28.57;46.04;100663.42;108448;1263;59442;-84
2023/07/16 07:13:50;;;;;;;;;;;;;;;28.65;45.91;100661.36;108249;1263;125054;-85
2023/07/16 07:16:17;;;;;;;;;;;;;;;28.79;45.80;100667.84;108451;1263;74247;-84
2023/07/16 07:18:44;;;;;;;;;;;;;;;28.94;45.57;100673.23;108519;1264;59358;-85
2023/07/16 07:21:11;;;;;;;;;;;;;;;29.09;45.07;100677.34;108365;1263;125092;-85
2023/07/16 07:23:38;;;;;;;;;;;;;;;29.21;44.65;100682.12;108549;1262;59136;-85
2023/07/16 07:26:05;;;;;;;;;;;;;;;29.38;44.49;100681.58;108360;1262;124990;-85
2023/07/16 07:28:32;;;;;;;;;;;;;;;29.54;44.17;100685.93;108365;1267;65529;-85
2023/07/16 07:30:59;;;;;;;;;;;;;;;29.71;44.01;100688.81;108588;1263;59056;-85
2023/07/16 07:33:26;;;;;;;;;;;;;;;29.84;43.66;100696.58;108375;1262;125264;-85
2023/07/16 07:35:54;;;;;;;;;;;;;;;29.89;43.36;100700.98;108508;1263;59355;-86
2023/07/16 07:38:21;;;;;;;;;;;;;;;29.90;43.32;100705.63;108337;1264;124766;-86
2023/07/16 07:40:48;;;;;;;;;;;;;;;29.91;43.14;100704.36;108542;1263;65932;-86
2023/07/16 07:43:15;;;;;;;;;;;;;;;29.86;42.89;100712.05;108397;1262;59527;-86
2023/07/16 07:45:43;;;;;;;;;;;;;;;29.79;42.54;100724.34;108495;1264;65887;-85
2023/07/16 07:48:10;;;;;;;;;;;;;;;29.70;42.08;100736.37;108449;1262;59149;-86
2023/07/16 07:50:37;;;;;;;;;;;;;;;29.54;41.85;100737.81;108387;1262;124788;-86
2023/07/16 07:53:04;;;;;;;;;;;;;;;29.44;41.94;100743.94;108528;1262;66131;-84
2023/07/16 07:55:31;;;;;;;;;;;;;;;29.43;42.18;100747.08;108477;1262;125104;-85
2023/07/16 07:57:58;;;;;;;;;;;;;;;29.41;42.02;100753.67;108566;1262;64091;-84
2023/07/16 08:00:25;;;;;;;;;;;;;;;29.36;41.79;100754.14;108587;1262;59304;-84
2023/07/16 08:02:53;;;;;;;;;;;;;;;29.30;41.85;100757.73;108481;1263;124394;-86
2023/07/16 08:05:20;;;;;;;;;;;;;;;29.28;42.06;100759.97;108328;1264;75524;-86
2023/07/16 08:07:47;;;;;;;;;;;;;;;29.30;42.16;100759.33;108254;1263;124956;-84
2023/07/16 08:10:14;;;;;;;;;;;;;;;29.33;42.19;100760.80;108533;1263;62851;-84
2023/07/16 08:12:41;;;;;;;;;;;;;;;29.36;42.19;100758.86;108395;1262;61321;-86
2023/07/16 08:15:13;;;;;;;;;;;;;;;29.36;42.15;100756.34;108465;1262;124585;-86
2023/07/16 08:17:41;;;;;;;;;;;;;;;29.35;42.11;100748.26;108500;1261;73260;-86
2023/07/16 08:20:08;;;;;;;;;;;;;;;29.27;41.78;100743.59;108489;1262;124612;-84
2023/07/16 08:22:35;;;;;;;;;;;;;;;29.15;41.73;100749.67;108466;1263;63140;-84
2023/07/16 08:25:03;;;;;;;;;;;;;;;29.07;42.03;100750.59;108498;1262;59338;-84
2023/07/16 08:27:31;;;;;;;;;;;;;;;29.07;42.15;100751.32;108439;1262;124668;-87
2023/07/16 08:29:58;;;;;;;;;;;;;;;29.18;42.17;100749.84;108292;1264;74823;-87
2023/07/16 08:32:25;;;;;;;;;;;;;;;29.31;42.20;100754.09;108387;1263;124711;-86
2023/07/16 08:34:52;;;;;;;;;;;;;;;29.44;42.31;100755.71;108567;1264;62777;-84
2023/07/16 08:37:19;;;;;;;;;;;;;;;29.61;42.52;100759.15;108466;1260;124577;-84
2023/07/16 08:39:46;;;;;;;;;;;;;;;29.74;42.28;100758.27;108488;1260;59163;-85
2023/07/16 08:42:13;;;;;;;;;;;;;;;29.80;42.04;100754.85;108712;1261;66372;-84
2023/07/16 08:44:40;;;;;;;;;;;;;;;29.88;41.90;100756.43;108390;1263;124310;-84
2023/07/16 08:47:08;;;;;;;;;;;;;;;29.98;41.77;100760.23;108591;1262;62910;-84
2023/07/16 08:49:35;;;;;;;;;;;;;;;30.13;41.79;100760.62;108348;1267;124767;-85
2023/07/16 08:52:04;;;;;;;;;;;;;;;30.34;41.73;100764.90;108523;1260;59124;-84
2023/07/16 08:54:31;;;;;;;;;;;;;;;30.52;41.35;100767.32;108559;1260;65857;-85
2023/07/16 08:56:58;;;;;;;;;;;;;;;30.67;41.26;100769.31;108525;1262;124409;-84
2023/07/16 08:59:26;;;;;;;;;;;;;;;30.82;41.22;100768.77;108378;1260;62789;-84
2023/07/16 09:01:53;;;;;;;;;;;;;;;30.98;41.07;100775.15;108527;1260;124544;-85
2023/07/16 09:04:20;;;;;;;;;;;;;;;31.11;40.81;100779.78;108616;1260;58963;-84
2023/07/16 09:06:47;;;;;;;;;;;;;;;31.24;40.83;100783.89;108419;1262;65891;-84
2023/07/16 09:09:21;;;;;;;;;;;;;;;31.46;40.89;100791.97;108431;1260;125286;-85
2023/07/16 09:11:48;;;;;;;;;;;;;;;31.76;40.73;100799.57;108484;1260;72252;-85
2023/07/16 09:14:18;;;;;;;;;;;;;;;31.92;40.33;100800.00;108429;1261;124543;-85
2023/07/16 09:16:49;;;;;;;;;;;;;;;32.01;40.16;100799.97;108378;1260;59208;-85
2023/07/16 09:19:18;;;;;;;;;;;;;;;32.12;40.02;100800.55;108453;1262;66143;-86
2023/07/16 09:21:49;;;;;;;;;;;;;;;32.16;39.79;100799.73;108538;1260;66881;-85
2023/07/16 09:24:16;;;;;;;;;;;;;;;32.14;39.60;100803.33;108606;1262;62651;-85
2023/07/16 09:26:49;;;;;;;;;;;;;;;32.03;39.49;100807.69;108365;1262;125078;-85
2023/07/16 09:29:17;;;;;;;;;;;;;;;31.78;39.40;100810.33;108441;1262;59295;-86
2023/07/16 09:31:56;;;;;;;;;;;;;;;31.52;39.62;100817.89;108534;1260;124898;-85
2023/07/16 09:34:29;;;;;;;;;;;;;;;31.35;39.78;100823.28;108522;1262;59407;-86
2023/07/16 09:36:57;;;;;;;;;;;;;;;31.18;40.02;100829.91;108626;1262;62557;-85
2023/07/16 09:39:25;;;;;;;;;;;;;;;30.97;40.20;100835.34;108327;1262;124446;-85
2023/07/16 09:41:53;;;;;;;;;;;;;;;30.76;40.53;100843.02;108458;1262;59083;-85
2023/07/16 09:44:20;;;;;;;;;;;;;;;30.66;40.80;100844.54;108386;1262;124687;-84
2023/07/16 09:46:47;;;;;;;;;;;;;;;30.66;41.04;100850.15;108663;1262;59195;-86
2023/07/16 09:49:26;;;;;;;;;;;;;;;30.63;41.05;100848.73;108564;1262;62495;-85
2023/07/16 09:51:53;;;;;;;;;;;;;;;30.53;40.80;100846.55;108538;1262;59270;-86
2023/07/16 09:54:20;;;;;;;;;;;;;;;30.48;41.03;100846.63;108461;1262;59424;-85
2023/07/16 09:56:48;;;;;;;;;;;;;;;30.51;40.85;100852.28;108510;1261;125785;-85
2023/07/16 09:59:16;;;;;;;;;;;;;;;30.58;40.88;100856.79;108553;1262;59226;-84
2023/07/16 10:01:43;;;;;;;;;;;;;;;30.62;40.78;100859.98;108346;1262;124430;-85
2023/07/16 10:04:14;;;;;;;;;;;;;;;30.52;40.67;100864.35;108580;1262;59066;-85
2023/07/16 10:06:54;;;;;;;;;;;;;;;30.32;40.76;100876.86;108576;1262;59147;-86
2023/07/16 10:09:33;;;;;;;;;;;;;;;30.10;41.49;100886.38;108348;1262;124551;-85
2023/07/16 10:12:20;;;;;;;;;;;;;;;29.89;41.85;100890.79;108380;1262;66943;-86
2023/07/16 10:14:56;;;;;;;;;;;;;;;29.76;42.05;100897.41;108438;1262;124728;-83
2023/07/16 10:17:24;;;;;;;;;;;;;;;29.74;42.09;100908.58;108370;1262;59308;-84
2023/07/16 10:20:01;;;;;;;;;;;;;;;29.73;42.11;100904.27;108438;1262;124395;-85
2023/07/16 10:22:35;;;;;;;;;;;;;;;29.70;41.95;100908.78;108318;1262;74680;-86
2023/07/16 10:25:10;;;;;;;;;;;;;;;29.62;42.13;100920.38;108357;1262;59446;-84
2023/07/16 10:27:37;;;;;;;;;;;;;;;29.58;42.19;100933.08;108222;1262;125610;-85
2023/07/16 10:30:04;;;;;;;;;;;;;;;29.54;42.36;100932.38;108412;1262;59122;-85
2023/07/16 10:32:39;;;;;;;;;;;;;;;29.44;42.47;100928.36;108379;1260;124469;-89
2023/07/16 10:35:06;;;;;;;;;;;;;;;29.36;42.63;100933.10;108471;1261;73678;-85
2023/07/16 10:37:33;;;;;;;;;;;;;;;29.24;42.92;100944.52;108380;1260;124466;-85
2023/07/16 10:40:00;;;;;;;;;;;;;;;29.14;43.29;100945.59;108595;1261;72489;-85
2023/07/16 10:42:27;;;;;;;;;;;;;;;29.07;43.38;100941.77;108448;1262;59988;-85
2023/07/16 10:44:59;;;;;;;;;;;;;;;28.99;43.49;100940.31;108376;1262;124497;-85
2023/07/16 10:47:30;;;;;;;;;;;;;;;28.97;43.77;100946.23;108528;1260;74461;-85
2023/07/16 10:49:57;;;;;;;;;;;;;;;29.00;44.11;100948.94;108213;1264;254726;-85
2023/07/16 10:52:24;;;;;;;;;;;;;;;29.07;44.22;100949.14;108537;1260;64088;-84
2023/07/16 10:54:54;;;;;;;;;;;;;;;29.06;44.28;100944.86;108483;1260;59101;-85
2023/07/16 10:57:21;;;;;;;;;;;;;;;28.98;44.23;100943.46;108382;1262;124335;-85
2023/07/16 10:59:49;;;;;;;;;;;;;;;28.98;44.35;100944.14;108666;1262;74686;-85
2023/07/16 11:02:16;;;;;;;;;;;;;;;29.06;44.69;100950.26;108381;1262;124387;-85
2023/07/16 11:04:45;;;;;;;;;;;;;;;29.13;44.31;100962.26;108555;1262;72665;-85
2023/07/16 11:07:12;;;;;;;;;;;;;;;29.13;44.31;100968.20;108479;1262;59101;-85
2023/07/16 11:09:52;;;;;;;;;;;;;;;29.13;44.29;100977.96;108406;1262;124289;-85
2023/07/16 11:12:20;;;;;;;;;;;;;;;29.14;44.14;100988.07;108642;1260;74815;-85
2023/07/16 11:14:48;;;;;;;;;;;;;;;29.12;44.07;100990.09;108442;1261;124532;-85
2023/07/16 11:17:15;;;;;;;;;;;;;;;29.18;44.01;100985.66;108415;1261;71179;-85
2023/07/16 11:19:46;;;;;;;;;;;;;;;29.34;44.06;100982.38;108393;1262;124782;-84
2023/07/16 11:22:13;;;;;;;;;;;;;;;29.52;43.94;100971.52;108436;1262;59178;-84
2023/07/16 11:24:42;;;;;;;;;;;;;;;29.60;43.83;100972.20;108673;1261;73314;-84
2023/07/16 11:27:22;;;;;;;;;;;;;;;29.71;43.82;100973.27;108418;1262;124519;-84
2023/07/16 11:29:50;;;;;;;;;;;;;;;30.00;43.70;100972.52;108522;1261;73195;-84
2023/07/16 11:32:30;;;;;;;;;;;;;;;30.24;43.54;100977.39;108508;1262;124928;-84
2023/07/16 11:34:58;;;;;;;;;;;;;;;30.43;43.33;100989.80;108345;1262;60836;-84
2023/07/16 11:37:25;;;;;;;;;;;;;;;30.55;43.11;100995.84;108319;1262;125063;-84
2023/07/16 11:39:56;;;;;;;;;;;;;;;30.49;42.86;100995.45;108433;1262;59436;-85
2023/07/16 11:42:23;;;;;;;;;;;;;;;30.38;42.91;100994.77;108519;1262;72478;-85
2023/07/16 11:44:51;;;;;;;;;;;;;;;30.28;43.03;100997.80;108539;1261;124411;-84
2023/07/16 11:47:18;;;;;;;;;;;;;;;30.14;43.01;100994.55;108470;1261;59044;-84
2023/07/16 11:49:45;;;;;;;;;;;;;;;30.01;43.10;100992.00;108368;1262;125018;-84
2023/07/16 11:52:12;;;;;;;;;;;;;;;29.96;43.23;100987.39;108673;1262;66841;-84
2023/07/16 11:54:39;;;;;;;;;;;;;;;30.02;43.40;100988.50;108648;1261;62500;-85
2023/07/16 11:57:06;;;;;;;;;;;;;;;30.20;43.41;100982.48;108500;1262;124694;-85
2023/07/16 11:59:33;;;;;;;;;;;;;;;30.39;43.16;100980.23;108547;1260;59171;-85
2023/07/16 12:02:00;;;;;;;;;;;;;;;30.57;43.07;100979.78;108555;1262;124917;-84
2023/07/16 12:04:27;;;;;;;;;;;;;;;30.78;42.99;100980.11;108493;1262;59100;-85
2023/07/16 12:06:54;;;;;;;;;;;;;;;30.88;42.99;100972.64;108449;1262;63849;-84
2023/07/16 12:09:21;;;;;;;;;;;;;;;30.87;42.77;100973.27;108523;1260;124426;-85
2023/07/16 12:11:48;;;;;;;;;;;;;;;30.80;42.82;100971.98;108657;1261;59134;-84
2023/07/16 12:14:15;;;;;;;;;;;;;;;30.77;42.73;100967.45;108421;1261;125057;-84
2023/07/16 12:16:42;;;;;;;;;;;;;;;30.63;42.59;100977.12;108616;1262;66991;-84
2023/07/16 12:19:09;;;;;;;;;;;;;;;30.39;42.96;100975.50;108558;1262;71138;-84
2023/07/16 12:21:36;;;;;;;;;;;;;;;30.32;43.20;100974.98;108257;1262;124520;-85
2023/07/16 12:24:03;;;;;;;;;;;;;;;30.41;43.29;100979.23;108396;1261;60152;-85
2023/07/16 12:26:30;;;;;;;;;;;;;;;30.54;43.23;100983.05;108534;1261;124354;-85